createdAt,value
2022-09-24T00:04:56.777Z,99.83
2022-09-24T00:10:02.820Z,99.81
2022-09-24T00:15:08.940Z,99.57
2022-09-24T00:20:16.359Z,98.87
2022-09-24T00:25:33.613Z,98.70
2022-09-24T00:30:40.844Z,98.68
2022-09-24T00:35:48.252Z,98.73
2022-09-24T00:40:53.173Z,98.71
2022-09-24T00:46:04.421Z,98.07
2022-09-24T00:51:14.928Z,97.86
2022-09-24T00:56:20.360Z,98.23
2022-09-24T01:01:28.065Z,98.35
2022-09-24T01:06:35.569Z,98.17
2022-09-24T01:11:50.667Z,97.66
2022-09-24T01:17:05.467Z,98.70
2022-09-24T01:22:25.771Z,99.98
2022-09-24T01:27:47.164Z,100.00
2022-09-24T01:32:59.003Z,100.00
2022-09-24T01:38:06.754Z,100.00
2022-09-24T01:43:13.619Z,100.00
2022-09-24T01:48:22.076Z,100.00
2022-09-24T01:53:30.374Z,100.00
2022-09-24T01:58:43.102Z,100.00
2022-09-24T02:03:56.631Z,100.00
2022-09-24T02:09:01.958Z,100.00
2022-09-24T02:14:11.324Z,100.00
2022-09-24T02:19:22.119Z,100.00
2022-09-24T02:24:33.550Z,100.00
2022-09-24T02:29:38.604Z,100.00
2022-09-24T02:34:50.071Z,100.00
2022-09-24T02:39:54.896Z,100.00
2022-09-24T02:45:00.691Z,100.00
2022-09-24T02:50:09.216Z,100.00
2022-09-24T02:55:14.384Z,100.00
2022-09-24T03:00:21.201Z,100.00
2022-09-24T03:05:28.689Z,100.00
2022-09-24T03:10:33.597Z,100.00
2022-09-24T03:15:38.717Z,100.00
2022-09-24T03:20:46.724Z,100.00
2022-09-24T03:25:51.737Z,100.00
2022-09-24T03:31:03.065Z,100.00
2022-09-24T03:36:13.779Z,100.00
2022-09-24T03:41:20.022Z,100.00
2022-09-24T03:46:30.272Z,100.00
2022-09-24T03:51:38.231Z,100.00
2022-09-24T03:56:43.227Z,100.00
2022-09-24T04:01:48.056Z,100.00
2022-09-24T04:06:55.754Z,100.00
2022-09-24T04:12:01.427Z,100.00
2022-09-24T04:17:06.400Z,100.00
2022-09-24T04:22:14.173Z,100.00
2022-09-24T04:27:19.140Z,100.00
2022-09-24T04:32:24.630Z,100.00
2022-09-24T04:37:32.112Z,100.00
2022-09-24T04:42:37.057Z,100.00
2022-09-24T04:47:42.798Z,100.00
2022-09-24T04:52:50.878Z,100.00
2022-09-24T04:57:58.192Z,100.00
2022-09-24T05:03:06.206Z,100.00
2022-09-24T05:08:13.725Z,100.00
2022-09-24T05:13:18.696Z,100.00
2022-09-24T05:18:23.516Z,100.00
2022-09-24T05:23:31.135Z,100.00
2022-09-24T05:28:37.745Z,100.00
2022-09-24T05:33:43.097Z,100.00
2022-09-24T05:38:50.986Z,100.00
2022-09-24T05:43:58.360Z,100.00
2022-09-24T05:49:03.349Z,100.00
2022-09-24T05:54:11.614Z,100.00
2022-09-24T05:59:16.726Z,100.00
2022-09-24T06:04:21.774Z,100.00
2022-09-24T06:09:29.307Z,100.00
2022-09-24T06:14:34.565Z,100.00
2022-09-24T06:19:39.516Z,100.00
2022-09-24T06:24:47.061Z,100.00
2022-09-24T06:29:51.962Z,100.00
2022-09-24T06:34:59.247Z,100.00
2022-09-24T06:40:07.994Z,100.00
2022-09-24T06:45:14.467Z,100.00
2022-09-24T06:50:19.330Z,100.00
2022-09-24T06:55:27.322Z,100.00
2022-09-24T07:00:32.547Z,95.23
2022-09-24T07:05:42.662Z,97.72
2022-09-24T07:10:53.005Z,100.00
2022-09-24T07:15:58.034Z,94.84
2022-09-24T07:21:02.885Z,77.98
2022-09-24T07:26:10.900Z,81.54
2022-09-24T07:31:17.687Z,85.97
2022-09-24T07:36:23.205Z,78.67
2022-09-24T07:41:30.974Z,79.96
2022-09-24T07:46:36.028Z,86.92
2022-09-24T07:51:41.136Z,89.32
2022-09-24T07:56:48.553Z,84.87
2022-09-24T08:01:54.161Z,80.23
2022-09-24T08:06:59.119Z,77.98
2022-09-24T08:12:07.428Z,75.76
2022-09-24T08:17:12.248Z,76.43
2022-09-24T08:22:17.317Z,68.65
2022-09-24T08:27:25.364Z,65.96
2022-09-24T08:32:30.247Z,70.18
2022-09-24T08:37:35.231Z,70.42
2022-09-24T08:42:52.169Z,70.59
2022-09-24T08:48:00.224Z,63.67
2022-09-24T08:53:16.084Z,58.67
2022-09-24T08:58:44.608Z,55.86
2022-09-24T09:03:56.461Z,61.95
2022-09-24T09:09:10.816Z,61.96
2022-09-24T09:14:22.128Z,60.35
2022-09-24T09:19:32.449Z,61.41
2022-09-24T09:24:50.046Z,57.53
2022-09-24T09:30:00.335Z,51.88
2022-09-24T09:35:14.246Z,51.96
2022-09-24T09:40:34.978Z,52.91
2022-09-24T09:45:47.838Z,53.78
2022-09-24T09:50:55.241Z,56.09
2022-09-24T09:56:03.143Z,59.13
2022-09-24T10:01:12.925Z,58.32
2022-09-24T10:06:28.053Z,58.86
2022-09-24T10:11:33.262Z,62.55
2022-09-24T10:16:44.006Z,64.19
2022-09-24T10:21:49.044Z,61.29
2022-09-24T10:26:54.645Z,63.73
2022-09-24T10:32:02.347Z,58.56
2022-09-24T10:37:16.929Z,58.86
2022-09-24T10:42:27.516Z,61.00
2022-09-24T10:47:46.360Z,58.28
2022-09-24T10:52:56.625Z,61.29
2022-09-24T10:58:09.581Z,67.13
2022-09-24T11:03:47.444Z,62.00
2022-09-24T11:09:09.686Z,59.31
2022-09-24T11:14:28.862Z,60.90
2022-09-24T11:20:01.823Z,57.85
2022-09-24T11:25:28.835Z,61.81
2022-09-24T11:30:44.429Z,62.69
2022-09-24T11:36:04.729Z,60.00
2022-09-24T11:41:23.020Z,58.89
2022-09-24T11:46:45.305Z,60.29
2022-09-24T11:52:00.047Z,59.79
2022-09-24T11:57:12.566Z,62.00
2022-09-24T12:02:23.931Z,58.02
2022-09-24T12:07:37.951Z,58.56
2022-09-24T12:12:46.568Z,59.34
2022-09-24T12:17:57.127Z,59.90
2022-09-24T12:23:08.367Z,57.39
2022-09-24T12:28:36.004Z,58.65
2022-09-24T12:33:47.007Z,59.09
2022-09-24T12:38:58.204Z,60.68
2022-09-24T12:44:08.919Z,59.74
2022-09-24T12:49:27.076Z,59.06
2022-09-24T12:54:36.633Z,59.17
2022-09-24T12:59:56.010Z,59.44
2022-09-24T13:05:19.967Z,57.85
2022-09-24T13:10:30.796Z,59.90
2022-09-24T13:15:38.995Z,60.60
2022-09-24T13:20:50.388Z,60.83
2022-09-24T13:26:05.058Z,61.62
2022-09-24T13:31:28.847Z,62.49
2022-09-24T13:36:48.535Z,60.75
2022-09-24T13:42:04.117Z,62.71
2022-09-24T13:47:17.681Z,62.56
2022-09-24T13:52:32.507Z,61.48
2022-09-24T13:57:46.230Z,63.30
2022-09-24T14:03:04.938Z,63.70
2022-09-24T14:08:14.835Z,65.55
2022-09-24T14:13:25.443Z,65.24
2022-09-24T14:18:31.943Z,66.38
2022-09-24T14:23:42.732Z,66.71
2022-09-24T14:28:50.325Z,66.40
2022-09-24T14:33:55.482Z,66.98
2022-09-24T14:39:06.598Z,66.13
2022-09-24T14:44:22.161Z,66.98
2022-09-24T14:49:30.469Z,67.10
2022-09-24T14:54:40.506Z,67.86
2022-09-24T14:59:49.788Z,68.98
2022-09-24T15:05:03.297Z,69.93
2022-09-24T15:10:23.032Z,71.98
2022-09-24T15:15:34.421Z,72.01
2022-09-24T15:20:39.442Z,71.95
2022-09-24T15:25:44.256Z,72.05
2022-09-24T15:30:51.761Z,73.97
2022-09-24T15:35:59.682Z,75.00
2022-09-24T15:41:04.732Z,75.66
2022-09-24T15:46:12.275Z,76.79
2022-09-24T15:51:20.081Z,77.81
2022-09-24T15:56:24.973Z,78.45
2022-09-24T16:01:32.463Z,79.00
2022-09-24T16:06:37.362Z,79.59
2022-09-24T16:11:42.465Z,78.28
2022-09-24T16:16:52.820Z,79.04
2022-09-24T16:21:59.952Z,80.08
2022-09-24T16:27:12.807Z,80.45
2022-09-24T16:32:20.588Z,80.38
2022-09-24T16:37:28.822Z,80.60
2022-09-24T16:42:34.452Z,81.43
2022-09-24T16:47:44.142Z,84.22
2022-09-24T16:52:54.980Z,85.58
2022-09-24T16:58:02.903Z,86.66
2022-09-24T17:03:12.720Z,86.74
2022-09-24T17:08:17.855Z,85.97
2022-09-24T17:13:23.676Z,85.66
2022-09-24T17:18:31.619Z,86.52
2022-09-24T17:23:37.892Z,88.46
2022-09-24T17:28:44.910Z,90.07
2022-09-24T17:33:57.973Z,91.26
2022-09-24T17:39:03.369Z,92.07
2022-09-24T17:44:10.772Z,93.61
2022-09-24T17:49:18.316Z,96.39
2022-09-24T17:54:26.851Z,96.85
2022-09-24T17:59:34.248Z,97.38
2022-09-24T18:04:45.319Z,95.52
2022-09-24T18:09:58.202Z,96.31
2022-09-24T18:15:04.582Z,98.87
2022-09-24T18:20:12.700Z,98.46
2022-09-24T18:25:21.479Z,100.00
2022-09-24T18:30:26.490Z,100.00
2022-09-24T18:35:47.675Z,100.00
2022-09-24T18:40:52.614Z,100.00
2022-09-24T18:45:58.383Z,100.00
2022-09-24T18:51:09.446Z,100.00
2022-09-24T18:56:15.225Z,100.00
2022-09-24T19:01:20.402Z,100.00
2022-09-24T19:06:28.736Z,100.00
2022-09-24T19:11:34.235Z,100.00
2022-09-24T19:16:39.250Z,100.00
2022-09-24T19:21:47.058Z,100.00
2022-09-24T19:26:53.652Z,100.00
2022-09-24T19:31:58.458Z,100.00
2022-09-24T19:37:07.893Z,100.00
2022-09-24T19:42:13.243Z,100.00
2022-09-24T19:47:18.730Z,100.00
2022-09-24T19:52:26.155Z,100.00
2022-09-24T19:57:30.983Z,100.00
2022-09-24T20:02:35.999Z,100.00
2022-09-24T20:07:45.943Z,100.00
2022-09-24T20:12:51.945Z,100.00
2022-09-24T20:17:57.972Z,100.00
2022-09-24T20:23:05.370Z,100.00
2022-09-24T20:28:14.306Z,100.00
2022-09-24T20:33:20.350Z,100.00
2022-09-24T20:38:28.513Z,100.00
2022-09-24T20:43:35.549Z,100.00
2022-09-24T20:48:40.524Z,100.00
2022-09-24T20:53:49.196Z,100.00
2022-09-24T20:58:56.727Z,100.00
2022-09-24T21:04:04.642Z,100.00
2022-09-24T21:09:12.167Z,100.00
2022-09-24T21:14:17.942Z,100.00
2022-09-24T21:19:23.023Z,100.00
2022-09-24T21:24:31.838Z,100.00
2022-09-24T21:29:36.823Z,100.00
2022-09-24T21:34:41.995Z,100.00
2022-09-24T21:39:50.241Z,100.00
2022-09-24T21:44:55.150Z,100.00
2022-09-24T21:50:00.113Z,100.00
2022-09-24T21:55:11.202Z,100.00
2022-09-24T22:00:17.956Z,100.00
2022-09-24T22:05:22.991Z,100.00
2022-09-24T22:10:30.399Z,100.00
2022-09-24T22:15:35.417Z,100.00
2022-09-24T22:20:44.909Z,100.00
2022-09-24T22:25:58.034Z,100.00
2022-09-24T22:31:07.220Z,100.00
2022-09-24T22:36:12.930Z,100.00
2022-09-24T22:41:23.947Z,100.00
2022-09-24T22:46:29.878Z,100.00
2022-09-24T22:51:36.240Z,100.00
2022-09-24T22:56:43.770Z,100.00
2022-09-24T23:01:48.883Z,100.00
2022-09-24T23:06:53.839Z,100.00
2022-09-24T23:12:02.550Z,100.00
2022-09-24T23:17:07.629Z,100.00
2022-09-24T23:22:12.697Z,100.00
2022-09-24T23:27:20.647Z,100.00
2022-09-24T23:32:26.101Z,100.00
2022-09-24T23:37:31.969Z,100.00
2022-09-24T23:42:39.503Z,100.00
2022-09-24T23:47:44.380Z,100.00
2022-09-24T23:52:49.246Z,100.00
2022-09-24T23:57:56.743Z,100.00
